Aplicació Alertes

Dades de l'estació automàtica Port de Barcelona - Bocana Sud

?
?
Resum diari 16:30 TU
Dades diàries de l'estació meteorològica
Ratxa màxima del vent (10 m) 43.9 km/h - 206º 15:48 TU

El tram horari està expressat en Temps Universal (TU). Cal sumar una hora en horari d'hivern i dues en horari d'estiu per passar a l'hora oficial.

Port de Barcelona - Bocana Sud

Metadades estació meteorol´gica
Municipi El Prat de Llobregat
Comarca Baix Llobregat
Altitud 3 m
Data alta 08.04.2015
Estat actual Operativa
Dades de període
Període
TU
VVM (10 m)
km/h
DVM (10 m)
graus
VVX (10 m)
km/h
00:00 - 00:30 12.2 280 19.1
00:30 - 01:00 17.3 295 22.0
01:00 - 01:30 18.0 291 24.5
01:30 - 02:00 19.8 289 28.1
02:00 - 02:30 20.9 296 29.2
02:30 - 03:00 23.8 297 31.3
03:00 - 03:30 23.4 299 31.0
03:30 - 04:00 16.9 300 24.8
04:00 - 04:30 16.6 294 23.0
04:30 - 05:00 20.2 287 28.4
05:00 - 05:30 22.3 291 29.2
05:30 - 06:00 16.9 291 24.8
06:00 - 06:30 15.5 292 20.9
06:30 - 07:00 16.2 285 20.9
07:00 - 07:30 18.0 284 23.4
07:30 - 08:00 15.5 279 20.5
08:00 - 08:30 16.2 271 20.9
08:30 - 09:00 18.4 273 23.8
09:00 - 09:30 18.7 298 26.6
09:30 - 10:00 15.1 295 24.5
10:00 - 10:30 19.8 286 25.6
10:30 - 11:00 12.2 265 20.2
11:00 - 11:30 7.2 235 13.7
11:30 - 12:00 11.9 186 15.8
12:00 - 12:30 19.1 195 31.7
12:30 - 13:00 29.5 211 39.2
13:00 - 13:30 32.4 209 41.8
13:30 - 14:00 27.4 225 37.8
14:00 - 14:30 23.4 227 32.8
14:30 - 15:00 25.9 230 37.8
15:00 - 15:30 27.0 224 38.9
15:30 - 16:00 35.3 206 43.9
16:00 - 16:30 32.8 210 40.7
16:30 - 17:00 25.9 215 35.6

Les dades en taronja només han passat un control de qualitat automàtic. Resta pendent la seva validació definitiva.